createdAt,value
2017-11-10T00:00:12.389Z,925.7
2017-11-10T00:00:25.285Z,925.67
2017-11-10T00:00:38.201Z,925.69
2017-11-10T00:00:51.638Z,925.66
2017-11-10T00:01:05.095Z,925.66
2017-11-10T00:01:18.598Z,925.68
2017-11-10T00:01:32.119Z,925.7
2017-11-10T00:01:45.622Z,925.68
2017-11-10T00:01:59.103Z,925.66
2017-11-10T00:02:12.535Z,925.71
2017-11-10T00:02:26.020Z,925.71
2017-11-10T00:02:38.921Z,925.7
2017-11-10T00:02:51.745Z,925.69
2017-11-10T00:03:05.229Z,925.69
2017-11-10T00:03:18.775Z,925.69
2017-11-10T00:03:32.253Z,925.66
2017-11-10T00:03:45.749Z,925.67
2017-11-10T00:03:58.625Z,925.69
2017-11-10T00:04:12.071Z,925.69
2017-11-10T00:04:25.028Z,925.64
2017-11-10T00:04:37.981Z,925.69
2017-11-10T00:04:51.454Z,925.67
2017-11-10T00:05:04.386Z,925.68
2017-11-10T00:05:17.890Z,925.7
2017-11-10T00:05:30.806Z,925.7
2017-11-10T00:05:44.264Z,925.7
2017-11-10T00:05:57.723Z,925.69
2017-11-10T00:06:10.653Z,925.69
2017-11-10T00:06:23.527Z,925.69
2017-11-10T00:06:36.468Z,925.7
2017-11-10T00:06:49.350Z,925.76
2017-11-10T00:07:02.289Z,925.73
2017-11-10T00:07:15.261Z,925.72
2017-11-10T00:07:28.206Z,925.73
2017-11-10T00:07:41.756Z,925.72
2017-11-10T00:07:55.215Z,925.74
2017-11-10T00:08:08.137Z,925.73
2017-11-10T00:08:21.612Z,925.72
2017-11-10T00:08:35.113Z,925.77
2017-11-10T00:08:48.805Z,925.75
2017-11-10T00:09:01.146Z,925.78
2017-11-10T00:09:14.064Z,925.75
2017-11-10T00:09:27.601Z,925.8
2017-11-10T00:09:41.086Z,925.75
2017-11-10T00:09:54.007Z,925.74
2017-11-10T00:10:06.921Z,925.75
2017-11-10T00:10:19.881Z,925.74
2017-11-10T00:10:33.341Z,925.76
2017-11-10T00:10:46.232Z,925.72
2017-11-10T00:10:59.695Z,925.73
2017-11-10T00:11:12.668Z,925.74
2017-11-10T00:11:26.128Z,925.74
2017-11-10T00:11:40.511Z,925.76
2017-11-10T00:11:53.992Z,925.72
2017-11-10T00:12:06.946Z,925.72
2017-11-10T00:12:19.334Z,925.73
2017-11-10T00:12:32.297Z,925.75
2017-11-10T00:12:45.741Z,925.72
2017-11-10T00:12:59.171Z,925.76
2017-11-10T00:13:12.575Z,925.77
2017-11-10T00:13:26.062Z,925.73
2017-11-10T00:13:38.946Z,925.74
2017-11-10T00:13:52.452Z,925.76
2017-11-10T00:14:05.924Z,925.71
2017-11-10T00:14:19.389Z,925.77
2017-11-10T00:14:32.301Z,925.72
2017-11-10T00:14:45.245Z,925.77
2017-11-10T00:14:58.672Z,925.76
2017-11-10T00:15:12.135Z,925.73
2017-11-10T00:15:25.094Z,925.72
2017-11-10T00:15:38.562Z,925.72
2017-11-10T00:15:52.018Z,925.75
2017-11-10T00:16:04.972Z,925.73
2017-11-10T00:16:17.940Z,925.73
2017-11-10T00:16:30.851Z,925.74
2017-11-10T00:16:44.251Z,925.74
2017-11-10T00:16:57.734Z,925.72
2017-11-10T00:17:11.199Z,925.74
2017-11-10T00:17:24.657Z,925.72
2017-11-10T00:17:37.634Z,925.74
2017-11-10T00:17:51.100Z,925.73
2017-11-10T00:18:04.062Z,925.72
2017-11-10T00:18:16.987Z,925.74
2017-11-10T00:18:29.895Z,925.71
2017-11-10T00:18:43.370Z,925.74
2017-11-10T00:18:56.851Z,925.74
2017-11-10T00:19:09.798Z,925.74
2017-11-10T00:19:23.221Z,925.72
2017-11-10T00:19:36.089Z,925.74
2017-11-10T00:19:49.567Z,925.74
2017-11-10T00:20:03.101Z,925.74
2017-11-10T00:20:16.545Z,925.76
2017-11-10T00:20:29.495Z,925.78
2017-11-10T00:20:43.171Z,925.74
2017-11-10T00:20:56.610Z,925.74
2017-11-10T00:21:08.948Z,925.75
2017-11-10T00:21:22.404Z,925.73
2017-11-10T00:21:35.907Z,925.75
2017-11-10T00:21:49.367Z,925.75
2017-11-10T00:22:02.815Z,925.77
2017-11-10T00:22:15.759Z,925.73
2017-11-10T00:22:29.208Z,925.77
2017-11-10T00:22:42.682Z,925.76
2017-11-10T00:22:56.136Z,925.77
2017-11-10T00:23:09.080Z,925.77
2017-11-10T00:23:21.960Z,925.77
2017-11-10T00:23:34.868Z,925.79
2017-11-10T00:23:47.791Z,925.79
2017-11-10T00:24:01.247Z,925.77
2017-11-10T00:24:14.169Z,925.77
2017-11-10T00:24:27.098Z,925.81
2017-11-10T00:24:40.582Z,925.8
2017-11-10T00:24:54.027Z,925.79
2017-11-10T00:25:06.461Z,925.79
2017-11-10T00:25:19.379Z,925.79
2017-11-10T00:25:32.320Z,925.8
2017-11-10T00:25:45.215Z,925.8
2017-11-10T00:25:57.601Z,925.82
2017-11-10T00:26:09.961Z,925.79
2017-11-10T00:26:22.833Z,925.82
2017-11-10T00:26:36.233Z,925.83
2017-11-10T00:26:49.902Z,925.79
2017-11-10T00:27:02.839Z,925.77
2017-11-10T00:27:15.728Z,925.79
2017-11-10T00:27:28.620Z,925.8
2017-11-10T00:27:42.143Z,925.77
2017-11-10T00:27:55.667Z,925.79
2017-11-10T00:28:09.128Z,925.79
2017-11-10T00:28:22.596Z,925.8
2017-11-10T00:28:36.066Z,925.81
2017-11-10T00:28:49.498Z,925.78
2017-11-10T00:29:02.955Z,925.77
2017-11-10T00:29:16.505Z,925.79
2017-11-10T00:29:28.869Z,925.77
2017-11-10T00:29:42.386Z,925.76
2017-11-10T00:29:55.815Z,925.78
2017-11-10T00:30:09.269Z,925.79
2017-11-10T00:30:22.213Z,925.77
2017-11-10T00:30:35.148Z,925.8
2017-11-10T00:30:48.077Z,925.79
2017-11-10T00:31:01.508Z,925.79
2017-11-10T00:31:13.316Z,925.8
2017-11-10T00:31:25.723Z,925.79
2017-11-10T00:31:39.188Z,925.8
2017-11-10T00:31:52.637Z,925.8
2017-11-10T00:32:06.119Z,925.78
2017-11-10T00:32:19.601Z,925.8
2017-11-10T00:32:32.535Z,925.8
2017-11-10T00:32:45.508Z,925.82
2017-11-10T00:32:58.908Z,925.81
2017-11-10T00:33:11.250Z,925.81
2017-11-10T00:33:24.752Z,925.81
2017-11-10T00:33:37.747Z,925.82
2017-11-10T00:33:51.203Z,925.8
2017-11-10T00:34:04.626Z,925.82
2017-11-10T00:34:17.524Z,925.81
2017-11-10T00:34:30.393Z,925.8
2017-11-10T00:34:43.909Z,925.79
2017-11-10T00:34:56.834Z,925.84
2017-11-10T00:35:10.302Z,925.85
2017-11-10T00:35:23.786Z,925.83
2017-11-10T00:35:37.254Z,925.82
2017-11-10T00:35:50.725Z,925.8
2017-11-10T00:36:03.584Z,925.78
2017-11-10T00:36:16.457Z,925.82
2017-11-10T00:36:29.881Z,925.78
2017-11-10T00:36:43.387Z,925.81
2017-11-10T00:36:56.872Z,925.81
2017-11-10T00:37:10.654Z,925.83
2017-11-10T00:37:24.102Z,925.84
2017-11-10T00:37:37.480Z,925.8
2017-11-10T00:37:50.921Z,925.84
2017-11-10T00:38:04.366Z,925.79
2017-11-10T00:38:17.811Z,925.8
2017-11-10T00:38:30.762Z,925.8
2017-11-10T00:38:43.688Z,925.81
2017-11-10T00:38:57.139Z,925.79
2017-11-10T00:39:12.032Z,925.78
2017-11-10T00:39:25.000Z,925.8
2017-11-10T00:39:38.462Z,925.77
2017-11-10T00:39:51.428Z,925.78
2017-11-10T00:40:04.851Z,925.8
2017-11-10T00:40:17.703Z,925.83
2017-11-10T00:40:31.168Z,925.82
2017-11-10T00:40:56.806Z,925.83
2017-11-10T00:41:09.721Z,925.83
2017-11-10T00:41:23.135Z,925.83
2017-11-10T00:41:36.593Z,925.84
2017-11-10T00:41:50.020Z,925.84
2017-11-10T00:42:04.342Z,925.83
2017-11-10T00:42:17.895Z,925.79
2017-11-10T00:42:31.385Z,925.83
2017-11-10T00:42:44.337Z,925.8
2017-11-10T00:42:57.833Z,925.82
2017-11-10T00:43:10.750Z,925.8
2017-11-10T00:43:23.114Z,925.81
2017-11-10T00:43:36.572Z,925.84
2017-11-10T00:43:50.054Z,925.82
2017-11-10T00:44:03.524Z,925.81
2017-11-10T00:44:17.044Z,925.83
2017-11-10T00:44:30.542Z,925.83
2017-11-10T00:44:43.458Z,925.81
2017-11-10T00:44:56.933Z,925.82
2017-11-10T00:45:09.840Z,925.79
2017-11-10T00:45:23.311Z,925.81
2017-11-10T00:45:36.727Z,925.83
2017-11-10T00:45:49.677Z,925.82
2017-11-10T00:46:02.634Z,925.83
2017-11-10T00:46:15.579Z,925.86
2017-11-10T00:46:29.282Z,925.84
2017-11-10T00:46:42.752Z,925.84
2017-11-10T00:46:55.701Z,925.89
2017-11-10T00:47:09.381Z,925.86
2017-11-10T00:47:22.304Z,925.87
2017-11-10T00:47:35.854Z,925.84
2017-11-10T00:47:49.358Z,925.87
2017-11-10T00:48:02.852Z,925.87
2017-11-10T00:48:15.224Z,925.84
2017-11-10T00:48:28.159Z,925.83
2017-11-10T00:48:41.630Z,925.84
2017-11-10T00:48:55.079Z,925.82
2017-11-10T00:49:08.539Z,925.83
2017-11-10T00:49:21.977Z,925.86
2017-11-10T00:49:34.869Z,925.85
2017-11-10T00:49:48.313Z,925.85
2017-11-10T00:50:01.222Z,925.84
2017-11-10T00:50:14.718Z,925.83
2017-11-10T00:50:27.662Z,925.84
2017-11-10T00:50:41.110Z,925.78
2017-11-10T00:50:54.064Z,925.83
2017-11-10T00:51:07.550Z,925.81
2017-11-10T00:51:20.486Z,925.84
2017-11-10T00:51:33.398Z,925.83
2017-11-10T00:51:46.323Z,925.82
2017-11-10T00:51:59.790Z,925.81
2017-11-10T00:52:13.274Z,925.8
2017-11-10T00:52:25.609Z,925.81
2017-11-10T00:52:39.091Z,925.81
2017-11-10T00:52:52.578Z,925.8
2017-11-10T00:53:06.009Z,925.78
2017-11-10T00:53:18.937Z,925.78
2017-11-10T00:53:32.425Z,925.77
2017-11-10T00:53:45.862Z,925.83
2017-11-10T00:53:59.305Z,925.78
2017-11-10T00:54:12.743Z,925.78
2017-11-10T00:54:25.621Z,925.77
2017-11-10T00:54:39.094Z,925.81
2017-11-10T00:54:52.564Z,925.81
2017-11-10T00:55:06.106Z,925.79
2017-11-10T00:55:18.998Z,925.84
2017-11-10T00:55:31.921Z,925.82
2017-11-10T00:55:45.381Z,925.81
2017-11-10T00:55:58.873Z,925.84
2017-11-10T00:56:12.317Z,925.83
2017-11-10T00:56:25.243Z,925.82
2017-11-10T00:56:38.711Z,925.82
2017-11-10T00:56:52.185Z,925.82
2017-11-10T00:57:05.003Z,925.83
2017-11-10T00:57:18.527Z,925.84
2017-11-10T00:57:31.913Z,925.83
2017-11-10T00:57:45.345Z,925.81
2017-11-10T00:57:58.827Z,925.81
2017-11-10T00:58:11.739Z,925.81
2017-11-10T00:58:24.722Z,925.83
2017-11-10T00:58:38.236Z,925.84
2017-11-10T00:58:51.741Z,925.86
2017-11-10T00:59:05.207Z,925.85
2017-11-10T00:59:18.640Z,925.83
2017-11-10T00:59:31.007Z,925.84
2017-11-10T00:59:44.444Z,925.82
2017-11-10T00:59:57.919Z,925.83
2017-11-10T01:00:10.865Z,925.78
2017-11-10T01:00:24.305Z,925.82
2017-11-10T01:00:37.807Z,925.84
2017-11-10T01:00:51.307Z,925.82
2017-11-10T01:01:04.809Z,925.84
2017-11-10T01:01:18.260Z,925.87
2017-11-10T01:01:31.706Z,925.82
2017-11-10T01:01:45.180Z,925.83
2017-11-10T01:01:58.683Z,925.83
2017-11-10T01:02:10.480Z,925.82
2017-11-10T01:02:23.417Z,925.82
2017-11-10T01:02:36.907Z,925.84
2017-11-10T01:02:50.372Z,925.81
2017-11-10T01:03:03.801Z,925.82
2017-11-10T01:03:16.689Z,925.82
2017-11-10T01:03:29.084Z,925.81
2017-11-10T01:03:42.032Z,925.83
2017-11-10T01:03:55.523Z,925.81
2017-11-10T01:04:09.014Z,925.85
2017-11-10T01:04:21.981Z,925.86
2017-11-10T01:04:35.466Z,925.86
2017-11-10T01:04:48.991Z,925.88
2017-11-10T01:05:02.473Z,925.86
2017-11-10T01:05:15.889Z,925.91
2017-11-10T01:05:28.819Z,925.9
2017-11-10T01:05:41.709Z,925.87
2017-11-10T01:05:55.154Z,925.91
2017-11-10T01:06:07.526Z,925.92
2017-11-10T01:06:21.010Z,925.91
2017-11-10T01:06:34.523Z,925.91
2017-11-10T01:06:47.932Z,925.96
2017-11-10T01:07:01.428Z,925.92
2017-11-10T01:07:14.914Z,925.93
2017-11-10T01:07:27.871Z,925.95
2017-11-10T01:07:40.844Z,925.93
2017-11-10T01:07:54.255Z,925.94
2017-11-10T01:08:07.209Z,925.97
2017-11-10T01:08:20.713Z,925.96
2017-11-10T01:08:33.612Z,925.96
2017-11-10T01:08:45.434Z,925.94
2017-11-10T01:08:58.886Z,925.97
2017-11-10T01:09:11.832Z,925.98
2017-11-10T01:09:24.778Z,925.98
2017-11-10T01:09:37.760Z,925.99
2017-11-10T01:09:51.258Z,925.97
2017-11-10T01:10:04.947Z,925.98
2017-11-10T01:10:17.342Z,925.98
2017-11-10T01:10:30.774Z,925.98
2017-11-10T01:10:43.716Z,925.98
2017-11-10T01:10:57.160Z,925.97
2017-11-10T01:11:10.102Z,925.98
2017-11-10T01:11:23.037Z,925.98
2017-11-10T01:11:36.519Z,925.96
2017-11-10T01:11:49.971Z,925.99
2017-11-10T01:12:03.424Z,925.97
2017-11-10T01:12:17.290Z,925.96
2017-11-10T01:12:30.760Z,925.97
2017-11-10T01:12:43.659Z,925.99
2017-11-10T01:12:57.112Z,925.97
2017-11-10T01:13:10.621Z,926.02
2017-11-10T01:13:24.096Z,926
2017-11-10T01:13:37.533Z,925.98
2017-11-10T01:13:50.961Z,925.98
2017-11-10T01:14:04.377Z,925.95
2017-11-10T01:14:17.264Z,925.95
2017-11-10T01:14:30.195Z,926
2017-11-10T01:14:43.641Z,925.97
2017-11-10T01:14:56.515Z,925.98
2017-11-10T01:15:09.991Z,925.99
2017-11-10T01:15:23.383Z,925.94
2017-11-10T01:15:36.340Z,925.99
2017-11-10T01:15:49.838Z,925.98
2017-11-10T01:16:03.332Z,925.98
2017-11-10T01:16:16.207Z,925.97
2017-11-10T01:16:29.675Z,925.99
2017-11-10T01:16:42.584Z,925.95
2017-11-10T01:16:56.049Z,925.98
2017-11-10T01:17:08.970Z,925.98
2017-11-10T01:17:21.987Z,926
2017-11-10T01:17:35.459Z,925.97
2017-11-10T01:17:48.901Z,926.01
2017-11-10T01:18:02.374Z,926
2017-11-10T01:18:15.349Z,925.99
2017-11-10T01:18:28.294Z,926
2017-11-10T01:18:41.188Z,926
2017-11-10T01:18:54.150Z,925.99
2017-11-10T01:19:07.664Z,925.99
2017-11-10T01:19:21.132Z,925.98
2017-11-10T01:19:34.560Z,925.98
2017-11-10T01:19:48.046Z,926.01
2017-11-10T01:20:00.422Z,926.02
2017-11-10T01:20:13.321Z,926
2017-11-10T01:20:26.840Z,926.04
2017-11-10T01:20:40.275Z,926.04
2017-11-10T01:20:53.763Z,926.03
2017-11-10T01:21:07.235Z,926.02
2017-11-10T01:21:20.671Z,926.06
2017-11-10T01:21:33.598Z,926.04
2017-11-10T01:21:47.164Z,926.02
2017-11-10T01:22:00.630Z,926.04
2017-11-10T01:22:14.159Z,926.03
2017-11-10T01:22:27.605Z,926.01
2017-11-10T01:22:41.026Z,925.97
2017-11-10T01:22:54.470Z,925.98
2017-11-10T01:23:07.932Z,926
2017-11-10T01:23:21.348Z,926.02
2017-11-10T01:23:34.229Z,925.99
2017-11-10T01:23:47.740Z,926
2017-11-10T01:24:00.642Z,926.01
2017-11-10T01:24:14.132Z,926.01
2017-11-10T01:24:27.596Z,926
2017-11-10T01:24:40.509Z,926.01
2017-11-10T01:24:53.949Z,925.99
2017-11-10T01:25:06.908Z,925.98
2017-11-10T01:25:20.392Z,925.95
2017-11-10T01:25:33.890Z,925.97
2017-11-10T01:25:46.794Z,925.96
2017-11-10T01:26:00.231Z,925.97
2017-11-10T01:26:13.684Z,925.99
2017-11-10T01:26:27.152Z,925.99
2017-11-10T01:26:40.071Z,925.98
2017-11-10T01:26:53.050Z,925.98
2017-11-10T01:27:06.505Z,926.01
2017-11-10T01:27:20.685Z,926
2017-11-10T01:27:34.192Z,926
2017-11-10T01:27:47.683Z,926.01
2017-11-10T01:28:01.173Z,926.01
2017-11-10T01:28:14.653Z,926.01
2017-11-10T01:28:28.098Z,926.04
2017-11-10T01:28:41.624Z,925.98
2017-11-10T01:28:55.158Z,926.02
2017-11-10T01:29:08.634Z,926.02
2017-11-10T01:29:22.073Z,926.04
2017-11-10T01:29:35.494Z,926.04
2017-11-10T01:29:48.984Z,926.07
2017-11-10T01:30:01.883Z,926.04
2017-11-10T01:30:15.364Z,926.01
2017-11-10T01:30:28.262Z,926.05
2017-11-10T01:30:41.748Z,926.07
2017-11-10T01:30:55.160Z,926.04
2017-11-10T01:31:08.052Z,926.05
2017-11-10T01:31:21.527Z,926.07
2017-11-10T01:31:34.988Z,926.08
2017-11-10T01:31:47.927Z,926.06
2017-11-10T01:32:01.361Z,926.06
2017-11-10T01:32:14.829Z,926.07
2017-11-10T01:32:28.280Z,926.04
2017-11-10T01:32:41.764Z,926.06
2017-11-10T01:32:54.166Z,926.06
2017-11-10T01:33:07.630Z,926.05
2017-11-10T01:33:20.001Z,926.04
2017-11-10T01:33:32.886Z,926.07
2017-11-10T01:33:46.369Z,926.05
2017-11-10T01:33:58.787Z,926.05
2017-11-10T01:34:12.340Z,926.05
2017-11-10T01:34:25.752Z,926.05
2017-11-10T01:34:39.221Z,926.03
2017-11-10T01:34:52.690Z,926.03
2017-11-10T01:35:06.129Z,926.04
2017-11-10T01:35:19.599Z,926.05
2017-11-10T01:35:32.533Z,926.06
2017-11-10T01:35:46.027Z,926.04
2017-11-10T01:35:58.982Z,926.03
2017-11-10T01:36:11.936Z,926.03
2017-11-10T01:36:24.965Z,926.01
2017-11-10T01:36:38.490Z,926.04
2017-11-10T01:36:51.930Z,926.04
2017-11-10T01:37:05.444Z,926
2017-11-10T01:37:18.912Z,926.04
2017-11-10T01:37:32.394Z,926.04
2017-11-10T01:37:45.840Z,926.05
2017-11-10T01:37:58.769Z,926.04
2017-11-10T01:38:12.283Z,926.07
2017-11-10T01:38:25.205Z,926.02
2017-11-10T01:38:38.662Z,926.07
2017-11-10T01:38:52.179Z,926.07
2017-11-10T01:39:05.722Z,926.06
2017-11-10T01:39:18.087Z,926.03
2017-11-10T01:39:31.000Z,926.06
2017-11-10T01:39:44.479Z,926.07
2017-11-10T01:39:57.923Z,926.01
2017-11-10T01:40:11.342Z,926.03
2017-11-10T01:40:24.784Z,926.04
2017-11-10T01:40:38.228Z,926.08
2017-11-10T01:40:51.152Z,926.02
2017-11-10T01:41:04.057Z,926.03
2017-11-10T01:41:17.541Z,926.04
2017-11-10T01:41:30.966Z,926.04
2017-11-10T01:41:44.437Z,926.01
2017-11-10T01:41:57.334Z,926.01
2017-11-10T01:42:10.279Z,926.03
2017-11-10T01:42:23.934Z,925.99
2017-11-10T01:42:37.413Z,925.98
2017-11-10T01:42:50.856Z,926.02
2017-11-10T01:43:03.782Z,926.03
2017-11-10T01:43:17.244Z,925.99
2017-11-10T01:43:30.655Z,926.04
2017-11-10T01:43:44.122Z,926.02
2017-11-10T01:43:57.608Z,926.02
2017-11-10T01:44:10.564Z,926.03
2017-11-10T01:44:23.502Z,926.03
2017-11-10T01:44:36.996Z,926.02
2017-11-10T01:44:50.505Z,926.02
2017-11-10T01:45:03.406Z,926.05
2017-11-10T01:45:15.311Z,926
2017-11-10T01:45:28.752Z,926.05
2017-11-10T01:45:41.693Z,926
2017-11-10T01:45:55.171Z,926.01
2017-11-10T01:46:08.722Z,925.98
2017-11-10T01:46:21.645Z,925.99
2017-11-10T01:46:34.569Z,925.96
2017-11-10T01:46:48.022Z,925.99
2017-11-10T01:47:01.474Z,925.97
2017-11-10T01:47:14.429Z,925.96
2017-11-10T01:47:27.545Z,925.95
2017-11-10T01:47:40.985Z,926.01
2017-11-10T01:47:54.418Z,925.96
2017-11-10T01:48:07.875Z,925.95
2017-11-10T01:48:20.836Z,925.92
2017-11-10T01:48:34.294Z,925.93
2017-11-10T01:48:47.725Z,925.89
2017-11-10T01:49:01.263Z,925.91
2017-11-10T01:49:14.702Z,925.91
2017-11-10T01:49:27.132Z,925.91
2017-11-10T01:49:40.010Z,925.91
2017-11-10T01:49:52.888Z,925.91
2017-11-10T01:50:06.417Z,925.9
2017-11-10T01:50:19.366Z,925.89
2017-11-10T01:50:32.844Z,925.91
2017-11-10T01:50:46.321Z,925.93
2017-11-10T01:50:59.864Z,925.9
2017-11-10T01:51:13.361Z,925.91
2017-11-10T01:51:26.799Z,925.93
2017-11-10T01:51:40.285Z,925.93
2017-11-10T01:51:53.172Z,925.9
2017-11-10T01:52:06.092Z,925.91
2017-11-10T01:52:19.020Z,925.93
2017-11-10T01:52:32.800Z,925.92
2017-11-10T01:52:46.252Z,925.94
2017-11-10T01:52:59.681Z,925.94
2017-11-10T01:53:13.154Z,925.95
2017-11-10T01:53:25.738Z,925.95
2017-11-10T01:53:39.197Z,925.96
2017-11-10T01:53:52.641Z,925.95
2017-11-10T01:54:06.116Z,925.97
2017-11-10T01:54:19.026Z,925.92
2017-11-10T01:54:32.513Z,925.96
2017-11-10T01:54:45.974Z,925.97
2017-11-10T01:54:58.931Z,925.95
2017-11-10T01:55:12.369Z,925.96
2017-11-10T01:55:25.292Z,925.97
2017-11-10T01:55:38.742Z,925.97
2017-11-10T01:55:52.127Z,925.96
2017-11-10T01:56:05.066Z,925.97
2017-11-10T01:56:18.480Z,925.99
2017-11-10T01:56:31.936Z,925.92
2017-11-10T01:56:44.855Z,925.93
2017-11-10T01:56:58.352Z,925.93
2017-11-10T01:57:11.852Z,925.94
2017-11-10T01:57:24.227Z,925.94
2017-11-10T01:57:38.103Z,925.91
2017-11-10T01:57:51.612Z,925.95
2017-11-10T01:58:04.526Z,925.92
2017-11-10T01:58:17.923Z,925.92
2017-11-10T01:58:31.347Z,925.94
2017-11-10T01:58:44.315Z,925.9
2017-11-10T01:58:57.216Z,925.9
2017-11-10T01:59:10.662Z,925.87
2017-11-10T01:59:23.570Z,925.89
2017-11-10T01:59:36.474Z,925.9
2017-11-10T01:59:50.665Z,925.88
2017-11-10T02:00:04.079Z,925.89
2017-11-10T02:00:17.577Z,925.85
2017-11-10T02:00:31.099Z,925.88
2017-11-10T02:00:44.568Z,925.87
2017-11-10T02:00:58.014Z,925.85
2017-11-10T02:01:11.483Z,925.83
2017-11-10T02:01:24.942Z,925.83
2017-11-10T02:01:38.433Z,925.83
2017-11-10T02:01:51.944Z,925.87
2017-11-10T02:02:04.860Z,925.85
2017-11-10T02:02:18.314Z,925.78
2017-11-10T02:02:31.775Z,925.82
2017-11-10T02:02:44.726Z,925.79
2017-11-10T02:02:58.135Z,925.81
2017-11-10T02:03:10.546Z,925.78
2017-11-10T02:03:23.997Z,925.82
2017-11-10T02:03:36.910Z,925.76
2017-11-10T02:03:50.378Z,925.78
2017-11-10T02:04:03.804Z,925.8
2017-11-10T02:04:17.247Z,925.81
2017-11-10T02:04:30.700Z,925.78
2017-11-10T02:04:44.146Z,925.8
2017-11-10T02:04:57.723Z,925.77
2017-11-10T02:05:11.203Z,925.79
2017-11-10T02:05:24.586Z,925.75
2017-11-10T02:05:38.101Z,925.77
2017-11-10T02:05:50.507Z,925.78
2017-11-10T02:06:03.959Z,925.79
2017-11-10T02:06:17.428Z,925.77
2017-11-10T02:06:30.888Z,925.78
2017-11-10T02:06:43.801Z,925.81
2017-11-10T02:06:57.231Z,925.77
2017-11-10T02:07:10.748Z,925.78
2017-11-10T02:07:24.224Z,925.76
2017-11-10T02:07:36.611Z,925.78
2017-11-10T02:07:49.520Z,925.77
2017-11-10T02:08:03.053Z,925.75
2017-11-10T02:08:16.528Z,925.74
2017-11-10T02:08:29.439Z,925.75
2017-11-10T02:08:42.916Z,925.74
2017-11-10T02:08:56.384Z,925.78
2017-11-10T02:09:09.342Z,925.79
2017-11-10T02:09:22.287Z,925.76
2017-11-10T02:09:35.170Z,925.76
2017-11-10T02:09:48.646Z,925.77
2017-11-10T02:10:01.005Z,925.78
2017-11-10T02:10:14.429Z,925.77
2017-11-10T02:10:27.905Z,925.72
2017-11-10T02:10:41.334Z,925.72
2017-11-10T02:10:54.829Z,925.72
2017-11-10T02:11:08.289Z,925.75
2017-11-10T02:11:21.752Z,925.7
2017-11-10T02:11:34.680Z,925.7
2017-11-10T02:11:47.095Z,925.69
2017-11-10T02:12:00.542Z,925.7
2017-11-10T02:12:13.467Z,925.71
2017-11-10T02:12:26.869Z,925.7
2017-11-10T02:12:40.765Z,925.67
2017-11-10T02:12:53.716Z,925.66
2017-11-10T02:13:07.168Z,925.71
2017-11-10T02:13:20.660Z,925.71
2017-11-10T02:13:33.619Z,925.67
2017-11-10T02:13:47.127Z,925.67
2017-11-10T02:14:00.575Z,925.67
2017-11-10T02:14:12.959Z,925.68
2017-11-10T02:14:25.928Z,925.67
2017-11-10T02:14:39.386Z,925.64
2017-11-10T02:14:52.841Z,925.67
2017-11-10T02:15:05.797Z,925.66
2017-11-10T02:15:18.155Z,925.64
2017-11-10T02:15:31.594Z,925.64
2017-11-10T02:15:45.019Z,925.65
2017-11-10T02:15:57.985Z,925.64
2017-11-10T02:16:10.890Z,925.64
2017-11-10T02:16:24.356Z,925.61
2017-11-10T02:16:37.805Z,925.62
2017-11-10T02:16:50.720Z,925.64
2017-11-10T02:17:04.174Z,925.63
2017-11-10T02:17:17.119Z,925.66
2017-11-10T02:17:30.548Z,925.61
2017-11-10T02:17:44.022Z,925.6
2017-11-10T02:17:57.521Z,925.61
2017-11-10T02:18:10.408Z,925.65
2017-11-10T02:18:23.332Z,925.6
2017-11-10T02:18:36.818Z,925.62
2017-11-10T02:18:50.277Z,925.62
2017-11-10T02:19:03.768Z,925.61
2017-11-10T02:19:17.286Z,925.59
2017-11-10T02:19:30.234Z,925.58
2017-11-10T02:19:43.702Z,925.55
2017-11-10T02:19:57.172Z,925.57
2017-11-10T02:20:10.127Z,925.6
2017-11-10T02:20:23.026Z,925.57
2017-11-10T02:20:36.513Z,925.6
2017-11-10T02:20:50.003Z,925.59
2017-11-10T02:21:03.516Z,925.59
2017-11-10T02:21:15.354Z,925.6
2017-11-10T02:21:28.799Z,925.58
2017-11-10T02:21:42.288Z,925.54
2017-11-10T02:21:55.252Z,925.56
2017-11-10T02:22:08.767Z,925.53
2017-11-10T02:22:22.286Z,925.56
2017-11-10T02:22:35.735Z,925.54
2017-11-10T02:22:49.278Z,925.55
2017-11-10T02:23:02.761Z,925.55
2017-11-10T02:23:16.220Z,925.57
2017-11-10T02:23:29.748Z,925.56
2017-11-10T02:23:42.700Z,925.52
2017-11-10T02:23:56.392Z,925.54
2017-11-10T02:24:09.892Z,925.53
2017-11-10T02:24:23.345Z,925.54
2017-11-10T02:24:36.799Z,925.53
2017-11-10T02:24:50.301Z,925.56
2017-11-10T02:25:03.720Z,925.55
2017-11-10T02:25:17.205Z,925.55
2017-11-10T02:25:30.098Z,925.56
2017-11-10T02:25:43.578Z,925.59
2017-11-10T02:25:57.038Z,925.59
2017-11-10T02:26:10.478Z,925.56
2017-11-10T02:26:23.985Z,925.55
2017-11-10T02:26:37.483Z,925.58
2017-11-10T02:26:50.975Z,925.58
2017-11-10T02:27:03.898Z,925.55
2017-11-10T02:27:16.336Z,925.52
2017-11-10T02:27:29.819Z,925.51
2017-11-10T02:27:43.994Z,925.52
2017-11-10T02:27:56.909Z,925.49
2017-11-10T02:28:10.413Z,925.48
2017-11-10T02:28:23.907Z,925.51
2017-11-10T02:28:37.359Z,925.49
2017-11-10T02:28:49.751Z,925.45
2017-11-10T02:29:03.219Z,925.49
2017-11-10T02:29:16.697Z,925.44
2017-11-10T02:29:29.603Z,925.46
2017-11-10T02:29:42.468Z,925.47
2017-11-10T02:29:55.920Z,925.46
2017-11-10T02:30:08.395Z,925.42
2017-11-10T02:30:21.916Z,925.44
2017-11-10T02:30:35.398Z,925.42
2017-11-10T02:30:48.915Z,925.42
2017-11-10T02:31:02.446Z,925.42
2017-11-10T02:31:15.430Z,925.45
2017-11-10T02:31:27.803Z,925.43
2017-11-10T02:31:41.257Z,925.41
2017-11-10T02:31:54.724Z,925.4
2017-11-10T02:32:08.247Z,925.41
2017-11-10T02:32:21.767Z,925.43
2017-11-10T02:32:34.741Z,925.41
2017-11-10T02:32:47.161Z,925.41
2017-11-10T02:33:00.008Z,925.39
2017-11-10T02:33:13.501Z,925.4
2017-11-10T02:33:26.982Z,925.39
2017-11-10T02:33:40.482Z,925.41
2017-11-10T02:33:53.402Z,925.37
2017-11-10T02:34:06.873Z,925.39
2017-11-10T02:34:20.359Z,925.4
2017-11-10T02:34:33.785Z,925.38
2017-11-10T02:34:47.248Z,925.4
2017-11-10T02:35:00.724Z,925.4
2017-11-10T02:35:13.663Z,925.36
2017-11-10T02:35:27.153Z,925.37
2017-11-10T02:35:40.636Z,925.37
2017-11-10T02:35:53.574Z,925.35
2017-11-10T02:36:04.883Z,925.37
2017-11-10T02:36:18.341Z,925.36
2017-11-10T02:36:31.788Z,925.38
2017-11-10T02:36:45.316Z,925.37
2017-11-10T02:36:58.804Z,925.37
2017-11-10T02:37:12.271Z,925.35
2017-11-10T02:37:25.756Z,925.33
2017-11-10T02:37:39.217Z,925.37
2017-11-10T02:37:52.117Z,925.31
2017-11-10T02:38:05.632Z,925.32
2017-11-10T02:38:18.616Z,925.35
2017-11-10T02:38:31.539Z,925.34
2017-11-10T02:38:45.049Z,925.36
2017-11-10T02:38:58.478Z,925.32
2017-11-10T02:39:11.388Z,925.33
2017-11-10T02:39:24.934Z,925.35
2017-11-10T02:39:37.913Z,925.34
2017-11-10T02:39:50.839Z,925.35
2017-11-10T02:40:03.813Z,925.32
2017-11-10T02:40:16.214Z,925.35
2017-11-10T02:40:29.704Z,925.35
2017-11-10T02:40:43.155Z,925.32
2017-11-10T02:40:56.057Z,925.33
2017-11-10T02:41:09.556Z,925.32
2017-11-10T02:41:22.596Z,925.3
2017-11-10T02:41:36.083Z,925.32
2017-11-10T02:41:49.012Z,925.35
2017-11-10T02:42:01.921Z,925.33
2017-11-10T02:42:14.324Z,925.33
2017-11-10T02:42:27.245Z,925.29
2017-11-10T02:42:40.746Z,925.31
2017-11-10T02:42:55.065Z,925.29
2017-11-10T02:43:08.535Z,925.3
2017-11-10T02:43:21.499Z,925.32
2017-11-10T02:43:34.991Z,925.3
2017-11-10T02:43:47.951Z,925.28
2017-11-10T02:44:01.483Z,925.3
2017-11-10T02:44:14.966Z,925.28
2017-11-10T02:44:27.883Z,925.29
2017-11-10T02:44:39.701Z,925.28
2017-11-10T02:44:53.201Z,925.28
2017-11-10T02:45:06.702Z,925.27
2017-11-10T02:45:20.139Z,925.26
2017-11-10T02:45:33.649Z,925.26
2017-11-10T02:45:47.183Z,925.31
2017-11-10T02:46:00.689Z,925.24
2017-11-10T02:46:13.117Z,925.27